Time;durP1;ratioP1;P1;durP2;ratioP2;P2;SDS_P1;SDS_P2;PMS_P1;PMS_P2;Temp;Humidity;BMP_temperature;BMP_pressure;BME280_temperature;BME280_humidity;BME280_pressure;Samples;Min_cycle;Max_cycle;Signal;HPM_P1;HPM_P2
2021/09/22 00:00:58;;;;;;;3.28;1.98;;;21.20;71.50;;;;;;5030606;28;20025;-82
2021/09/22 00:03:23;;;;;;;3.15;1.73;;;21.20;71.40;;;;;;5029351;28;20045;-83
2021/09/22 00:05:50;;;;;;;4.70;1.67;;;21.20;71.40;;;;;;5030488;28;20053;-82
2021/09/22 00:08:16;;;;;;;2.35;1.75;;;21.10;71.30;;;;;;5029212;28;20029;-82
2021/09/22 00:10:42;;;;;;;3.63;1.92;;;21.10;71.30;;;;;;5030778;28;20025;-81
2021/09/22 00:13:07;;;;;;;3.25;1.63;;;21.10;72.00;;;;;;5031192;28;20104;-80
2021/09/22 00:15:33;;;;;;;4.38;2.00;;;21.10;71.30;;;;;;5030160;28;20040;-81
2021/09/22 00:17:59;;;;;;;4.13;1.90;;;21.10;71.20;;;;;;5030143;28;20041;-81
2021/09/22 00:20:25;;;;;;;3.40;1.88;;;21.10;71.30;;;;;;5030823;28;20494;-81
2021/09/22 00:22:55;;;;;;;3.10;1.88;;;21.10;71.20;;;;;;5030512;28;20030;-81
2021/09/22 00:25:22;;;;;;;2.97;1.67;;;21.10;71.20;;;;;;5030198;28;20504;-81
2021/09/22 00:27:47;;;;;;;3.10;1.80;;;21.10;71.10;;;;;;5028352;28;20047;-83
2021/09/22 00:30:13;;;;;;;2.05;1.55;;;21.10;71.10;;;;;;5029065;28;20568;-82
2021/09/22 00:32:40;;;;;;;2.55;1.50;;;21.10;71.10;;;;;;5030536;28;20478;-82
2021/09/22 00:35:07;;;;;;;2.00;1.45;;;21.00;71.00;;;;;;5030453;28;20054;-83
2021/09/22 00:37:33;;;;;;;4.28;1.80;;;21.10;71.00;;;;;;5029899;28;20214;-81
2021/09/22 00:39:59;;;;;;;3.92;2.05;;;21.00;70.90;;;;;;5030219;28;20104;-81
2021/09/22 00:42:25;;;;;;;3.83;2.00;;;21.00;70.90;;;;;;5030588;28;20064;-82
2021/09/22 00:44:56;;;;;;;2.30;1.85;;;21.00;70.80;;;;;;5030007;28;20034;-83
2021/09/22 00:47:27;;;;;;;2.58;1.75;;;21.00;70.80;;;;;;5032847;28;20027;-83
2021/09/22 00:49:53;;;;;;;2.83;1.77;;;21.00;70.80;;;;;;5034018;28;20389;-81
2021/09/22 00:52:20;;;;;;;3.10;1.58;;;;;;;;;;5033547;28;20032;-82
2021/09/22 00:54:46;;;;;;;4.00;1.92;;;;;;;;;;5033664;28;20032;-82
2021/09/22 00:57:14;;;;;;;2.25;1.48;;;;;;;;;;5033786;28;20026;-82
2021/09/22 00:59:40;;;;;;;2.65;1.38;;;21.00;70.80;;;;;;5033539;28;20029;-83
2021/09/22 01:02:07;;;;;;;2.55;1.80;;;21.00;70.80;;;;;;5033533;28;20451;-83
2021/09/22 01:04:33;;;;;;;2.92;1.90;;;20.90;70.50;;;;;;5033498;28;20116;-83
2021/09/22 01:06:58;;;;;;;2.50;1.60;;;20.90;70.40;;;;;;5032951;28;20175;-82
2021/09/22 01:09:24;;;;;;;2.92;1.65;;;20.90;70.30;;;;;;5033539;28;20112;-82
2021/09/22 01:11:50;;;;;;;3.10;1.70;;;20.90;70.20;;;;;;5033362;28;20033;-82
2021/09/22 01:14:21;;;;;;;4.95;1.80;;;20.90;70.30;;;;;;5033427;28;20033;-82
2021/09/22 01:16:46;;;;;;;3.15;1.88;;;20.90;70.30;;;;;;5033009;28;20021;-82
2021/09/22 01:19:12;;;;;;;2.83;1.95;;;20.90;70.30;;;;;;5033204;28;20034;-83
2021/09/22 01:21:45;;;;;;;3.55;1.83;;;20.90;70.30;;;;;;5033110;28;20024;-82
2021/09/22 01:24:11;;;;;;;3.30;1.80;;;20.90;70.60;;;;;;5033746;28;20080;-81
2021/09/22 01:26:37;;;;;;;4.20;1.65;;;20.90;70.20;;;;;;5032967;28;20422;-82
2021/09/22 01:29:03;;;;;;;2.25;1.50;;;20.90;70.20;;;;;;5032770;28;20027;-81
2021/09/22 01:31:29;;;;;;;2.30;1.80;;;20.80;70.20;;;;;;5032924;28;20025;-81
2021/09/22 01:33:59;;;;;;;4.30;1.70;;;20.90;70.10;;;;;;5033018;28;20488;-81
2021/09/22 01:36:24;;;;;;;3.00;1.63;;;20.90;70.10;;;;;;5032755;28;20132;-81
2021/09/22 01:38:50;;;;;;;3.08;1.58;;;20.90;70.10;;;;;;5032501;28;20037;-81
2021/09/22 01:41:16;;;;;;;3.92;1.83;;;20.80;70.00;;;;;;5032543;28;20036;-81
2021/09/22 01:43:43;;;;;;;3.25;1.77;;;20.90;70.10;;;;;;5032816;28;20029;-82
2021/09/22 01:46:11;;;;;;;2.97;1.67;;;20.80;70.00;;;;;;5033061;28;20028;-81
2021/09/22 01:48:37;;;;;;;2.88;1.50;;;20.80;70.00;;;;;;5032048;28;20061;-81
2021/09/22 01:51:04;;;;;;;2.75;1.70;;;20.80;69.90;;;;;;5032930;28;20028;-81
2021/09/22 01:53:31;;;;;;;2.35;1.70;;;20.80;69.90;;;;;;5032753;28;20108;-81
2021/09/22 01:55:58;;;;;;;3.03;1.58;;;20.80;69.80;;;;;;5032727;28;20076;-81
2021/09/22 01:58:25;;;;;;;2.97;1.90;;;20.80;69.80;;;;;;5031665;28;20025;-81
2021/09/22 02:00:52;;;;;;;2.33;1.38;;;20.80;69.70;;;;;;5032056;28;20029;-81
2021/09/22 02:03:18;;;;;;;3.30;1.77;;;20.80;69.70;;;;;;5031080;28;20029;-81
2021/09/22 02:05:45;;;;;;;2.17;1.38;;;20.80;69.70;;;;;;5032669;28;20045;-81
2021/09/22 02:08:12;;;;;;;2.80;1.75;;;20.80;69.60;;;;;;5032607;28;20068;-81
2021/09/22 02:10:38;;;;;;;2.58;1.92;;;20.80;69.50;;;;;;5032004;28;20022;-82
2021/09/22 02:13:05;;;;;;;2.58;1.70;;;20.80;69.60;;;;;;5032475;28;20029;-83
2021/09/22 02:15:30;;;;;;;2.63;1.85;;;20.80;69.50;;;;;;5032206;28;20018;-82
2021/09/22 02:17:56;;;;;;;2.53;1.58;;;20.80;69.50;;;;;;5031869;28;20033;-80
2021/09/22 02:20:22;;;;;;;3.13;1.50;;;20.70;69.30;;;;;;5032421;28;20029;-80
2021/09/22 02:22:48;;;;;;;2.30;1.55;;;20.70;69.30;;;;;;5031944;28;20037;-81
2021/09/22 02:25:15;;;;;;;3.95;1.25;;;20.80;69.30;;;;;;5032606;28;20037;-81
2021/09/22 02:27:41;;;;;;;3.00;1.80;;;20.70;69.30;;;;;;5031718;28;20053;-81
2021/09/22 02:30:11;;;;;;;4.15;1.80;;;20.70;69.20;;;;;;5032230;28;20029;-81
2021/09/22 02:32:38;;;;;;;2.25;1.70;;;;;;;;;;5032058;28;20037;-81
2021/09/22 02:35:05;;;;;;;2.35;1.52;;;;;;;;;;5030750;28;20036;-82
2021/09/22 02:37:31;;;;;;;2.20;1.48;;;;;;;;;;5031079;28;20017;-81
2021/09/22 02:39:57;;;;;;;3.10;1.90;;;;;;;;;;5031824;28;20117;-83
2021/09/22 02:42:23;;;;;;;2.92;1.83;;;20.70;69.20;;;;;;5031935;28;20104;-81
2021/09/22 02:44:50;;;;;;;2.78;1.98;;;20.70;69.10;;;;;;5031450;28;20037;-81
2021/09/22 02:47:16;;;;;;;2.45;1.45;;;20.70;69.10;;;;;;5031947;28;20029;-81
2021/09/22 02:49:42;;;;;;;4.28;1.98;;;20.70;69.10;;;;;;5030564;28;20442;-82
2021/09/22 02:52:08;;;;;;;2.88;1.67;;;20.70;69.10;;;;;;5031651;28;20026;-82
2021/09/22 02:54:34;;;;;;;2.33;1.50;;;20.60;68.90;;;;;;5030174;28;20056;-82
2021/09/22 02:57:00;;;;;;;2.45;1.50;;;20.70;69.00;;;;;;5030017;28;20057;-82
2021/09/22 02:59:25;;;;;;;2.05;1.33;;;20.70;68.90;;;;;;5031761;28;20570;-82
2021/09/22 03:01:51;;;;;;;2.63;1.85;;;20.60;68.80;;;;;;5030832;28;20112;-81
2021/09/22 03:04:17;;;;;;;2.55;1.63;;;20.60;68.80;;;;;;5031222;28;20480;-81
2021/09/22 03:06:43;;;;;;;2.95;1.63;;;20.60;68.80;;;;;;5031360;28;20036;-83
2021/09/22 03:09:09;;;;;;;2.42;1.77;;;20.60;68.60;;;;;;5029484;28;20413;-82
2021/09/22 03:11:34;;;;;;;2.63;1.50;;;20.60;68.60;;;;;;5029250;28;20511;-82
2021/09/22 03:14:00;;;;;;;2.78;1.98;;;20.60;68.60;;;;;;5031369;28;20018;-81
2021/09/22 03:16:26;;;;;;;3.10;2.00;;;20.60;68.50;;;;;;5031378;28;20144;-82
2021/09/22 03:18:52;;;;;;;2.30;1.70;;;20.60;68.50;;;;;;5030884;28;20482;-82
2021/09/22 03:21:17;;;;;;;2.00;1.55;;;20.60;68.40;;;;;;5031213;28;20144;-81
2021/09/22 03:23:43;;;;;;;3.33;1.98;;;20.60;68.40;;;;;;5031091;28;20037;-82
2021/09/22 03:26:09;;;;;;;2.88;1.90;;;20.60;68.40;;;;;;5030954;28;20036;-81
2021/09/22 03:28:35;;;;;;;3.17;1.63;;;20.60;68.30;;;;;;5030269;28;20024;-82
2021/09/22 03:31:01;;;;;;;3.45;2.47;;;20.60;68.30;;;;;;5031145;28;20104;-81
2021/09/22 03:33:26;;;;;;;2.60;2.08;;;20.60;68.30;;;;;;5029809;28;20026;-81
2021/09/22 03:35:52;;;;;;;3.25;2.03;;;20.50;69.00;;;;;;5029499;28;20025;-80
2021/09/22 03:38:18;;;;;;;2.90;2.10;;;20.60;68.20;;;;;;5030704;28;20030;-81
2021/09/22 03:40:43;;;;;;;2.75;1.80;;;20.50;68.20;;;;;;5029552;28;20405;-80
2021/09/22 03:43:09;;;;;;;3.35;1.92;;;20.50;68.10;;;;;;5031009;28;20020;-81
2021/09/22 03:45:36;;;;;;;2.28;1.90;;;20.50;68.10;;;;;;5030739;28;20034;-81
2021/09/22 03:48:02;;;;;;;2.78;2.17;;;20.50;68.10;;;;;;5030625;28;20385;-80
2021/09/22 03:50:27;;;;;;;3.00;2.22;;;20.50;68.10;;;;;;5030552;28;20040;-81
2021/09/22 03:52:53;;;;;;;2.60;2.03;;;20.50;68.00;;;;;;5030867;28;20022;-81
2021/09/22 03:55:19;;;;;;;4.03;2.05;;;20.50;68.10;;;;;;5030527;28;20017;-80
2021/09/22 03:57:45;;;;;;;3.00;1.98;;;20.50;68.00;;;;;;5030262;28;20052;-80
2021/09/22 04:00:11;;;;;;;3.45;2.40;;;20.50;68.00;;;;;;5030585;28;20486;-80
2021/09/22 04:02:37;;;;;;;3.28;1.90;;;20.40;67.90;;;;;;5030658;28;20033;-81
2021/09/22 04:05:04;;;;;;;3.53;2.00;;;20.50;67.90;;;;;;5030595;28;20463;-80
2021/09/22 04:07:31;;;;;;;3.05;1.80;;;;;;;;;;5030139;28;20040;-82
2021/09/22 04:09:56;;;;;;;3.15;2.15;;;20.40;67.80;;;;;;5030684;28;20033;-82
2021/09/22 04:12:22;;;;;;;3.90;2.25;;;20.40;68.10;;;;;;5030687;28;20029;-82
2021/09/22 04:14:47;;;;;;;3.13;2.10;;;20.40;68.40;;;;;;5030572;28;20021;-83
2021/09/22 04:17:13;;;;;;;2.78;2.00;;;;;;;;;;5030660;28;20041;-82
2021/09/22 04:19:39;;;;;;;3.22;2.03;;;;;;;;;;5030423;28;20505;-82
2021/09/22 04:22:05;;;;;;;2.70;2.00;;;;;;;;;;5033194;28;20049;-83
2021/09/22 04:24:31;;;;;;;3.80;2.42;;;;;;;;;;5034455;28;20505;-82
2021/09/22 04:26:57;;;;;;;3.05;2.38;;;;;;;;;;5033580;28;20045;-82
2021/09/22 04:29:23;;;;;;;5.10;2.90;;;;;;;;;;5034565;28;20061;-81
2021/09/22 04:31:49;;;;;;;3.67;2.08;;;;;;;;;;5034043;28;20056;-82
2021/09/22 04:34:15;;;;;;;3.33;2.25;;;;;;;;;;5034397;28;20117;-81
2021/09/22 04:36:43;;;;;;;2.97;1.90;;;;;;;;;;5033035;28;20108;-81
2021/09/22 04:39:10;;;;;;;3.78;2.42;;;;;;;;;;5033444;28;20400;-80
2021/09/22 04:41:36;;;;;;;3.35;2.28;;;;;;;;;;5033754;28;20532;-82
2021/09/22 04:44:02;;;;;;;3.67;2.33;;;;;;;;;;5034127;28;20033;-82
2021/09/22 04:46:28;;;;;;;3.20;2.20;;;;;;;;;;5033688;28;20029;-81
2021/09/22 04:48:53;;;;;;;2.90;2.13;;;20.40;67.40;;;;;;5033422;28;20519;-81
2021/09/22 04:51:19;;;;;;;4.75;2.53;;;20.30;67.20;;;;;;5034225;28;20104;-81
2021/09/22 04:53:46;;;;;;;3.08;2.17;;;20.30;67.20;;;;;;5033639;28;20086;-81
2021/09/22 04:56:11;;;;;;;3.83;2.30;;;20.30;67.20;;;;;;5033655;28;20031;-82
2021/09/22 04:58:37;;;;;;;3.10;2.22;;;20.30;67.10;;;;;;5033267;28;20464;-82
2021/09/22 05:01:03;;;;;;;3.17;2.22;;;20.30;67.10;;;;;;5033250;28;20036;-82
2021/09/22 05:03:29;;;;;;;3.70;2.60;;;20.30;67.00;;;;;;5033428;28;20100;-82
2021/09/22 05:05:57;;;;;;;5.05;2.88;;;20.30;67.10;;;;;;5033802;28;20111;-81
2021/09/22 05:08:23;;;;;;;3.35;2.55;;;20.30;67.00;;;;;;5031884;28;20064;-81
2021/09/22 05:10:49;;;;;;;3.22;2.33;;;20.30;66.90;;;;;;5033542;28;20083;-82
2021/09/22 05:13:14;;;;;;;5.25;2.10;;;20.30;66.90;;;;;;5033855;28;20097;-81
2021/09/22 05:15:40;;;;;;;4.15;2.70;;;20.30;66.70;;;;;;5033384;28;20037;-80
2021/09/22 05:18:06;;;;;;;4.03;1.98;;;20.30;66.70;;;;;;5031858;28;20026;-80
2021/09/22 05:20:31;;;;;;;2.58;2.13;;;20.30;66.70;;;;;;5033369;28;20367;-81
2021/09/22 05:22:57;;;;;;;4.05;2.65;;;20.20;66.60;;;;;;5033489;28;20029;-81
2021/09/22 05:25:23;;;;;;;4.47;2.35;;;20.30;66.70;;;;;;5033297;28;20060;-81
2021/09/22 05:27:49;;;;;;;4.07;2.67;;;20.20;66.50;;;;;;5032943;28;20025;-81
2021/09/22 05:30:14;;;;;;;3.22;2.45;;;20.20;66.60;;;;;;5026425;28;20478;-81
2021/09/22 05:32:40;;;;;;;3.08;2.28;;;20.20;66.60;;;;;;5026912;28;20025;-81
2021/09/22 05:35:07;;;;;;;3.85;2.35;;;20.20;66.50;;;;;;5030493;28;20029;-81
2021/09/22 05:37:33;;;;;;;4.30;2.80;;;20.20;66.50;;;;;;5011709;28;20486;-81
2021/09/22 05:39:59;;;;;;;4.07;2.53;;;20.20;67.20;;;;;;5011694;28;20056;-81
2021/09/22 05:42:26;;;;;;;3.58;2.05;;;20.20;66.60;;;;;;5013333;28;20536;-81
2021/09/22 05:44:52;;;;;;;3.45;3.00;;;20.20;66.50;;;;;;5011918;28;20462;-80
2021/09/22 05:47:18;;;;;;;5.47;2.92;;;20.20;67.20;;;;;;5018104;28;20030;-81
2021/09/22 05:49:44;;;;;;;3.85;2.42;;;20.20;66.50;;;;;;5013026;28;20486;-81
2021/09/22 05:52:09;;;;;;;3.63;2.50;;;20.20;66.50;;;;;;5023040;28;20026;-81
2021/09/22 05:54:35;;;;;;;4.57;2.80;;;20.20;66.40;;;;;;5032585;28;20036;-81
2021/09/22 05:57:01;;;;;;;4.15;2.10;;;20.20;66.40;;;;;;5032422;28;20024;-80
2021/09/22 05:59:26;;;;;;;4.03;2.63;;;20.20;66.30;;;;;;5052596;28;20412;-81
2021/09/22 06:01:52;;;;;;;3.95;2.42;;;20.10;66.20;;;;;;5052273;28;20072;-81
2021/09/22 06:04:18;;;;;;;3.92;2.30;;;20.10;66.20;;;;;;5051308;28;20102;-80
2021/09/22 06:06:43;;;;;;;2.92;2.30;;;20.10;66.20;;;;;;5038996;28;20104;-80
2021/09/22 06:09:09;;;;;;;2.58;2.20;;;20.10;66.00;;;;;;5032659;28;20025;-81
2021/09/22 06:11:34;;;;;;;4.07;2.75;;;20.10;66.00;;;;;;5032197;28;20119;-80
2021/09/22 06:14:00;;;;;;;3.47;2.72;;;20.10;66.00;;;;;;5032604;28;20021;-79
2021/09/22 06:16:26;;;;;;;4.65;2.67;;;20.10;66.00;;;;;;5031803;28;20036;-81
2021/09/22 06:18:52;;;;;;;3.55;2.65;;;20.10;66.10;;;;;;5031357;28;20025;-79
2021/09/22 06:21:18;;;;;;;2.67;2.30;;;20.10;66.00;;;;;;5029941;28;20375;-80
2021/09/22 06:23:44;;;;;;;4.45;2.75;;;20.10;66.00;;;;;;5031214;28;20033;-79
2021/09/22 06:26:10;;;;;;;4.35;2.70;;;20.10;66.10;;;;;;5030779;28;20033;-79
2021/09/22 06:28:35;;;;;;;5.35;2.30;;;20.10;66.80;;;;;;5032081;28;20028;-80
2021/09/22 06:31:02;;;;;;;4.35;2.80;;;20.10;66.10;;;;;;5027086;28;20063;-79
2021/09/22 06:33:28;;;;;;;3.72;2.45;;;20.00;66.10;;;;;;5013133;28;20018;-80
2021/09/22 06:35:59;;;;;;;3.53;2.50;;;20.00;66.10;;;;;;5031858;28;20582;-83
2021/09/22 06:38:27;;;;;;;4.50;2.90;;;20.00;66.20;;;;;;5022275;28;20453;-81
2021/09/22 06:40:54;;;;;;;3.35;2.45;;;20.00;66.20;;;;;;5026285;28;20026;-84
2021/09/22 06:43:20;;;;;;;5.00;2.85;;;20.00;66.20;;;;;;5015392;28;20022;-80
2021/09/22 06:45:45;;;;;;;6.43;2.40;;;20.00;66.30;;;;;;5029548;28;20090;-83
2021/09/22 06:48:11;;;;;;;3.47;2.67;;;20.00;66.20;;;;;;5032163;28;20037;-84
2021/09/22 06:50:37;;;;;;;5.88;3.03;;;20.00;66.50;;;;;;5031712;28;20481;-81
2021/09/22 06:53:03;;;;;;;3.63;2.50;;;20.00;66.60;;;;;;5031880;28;20021;-82
2021/09/22 06:55:29;;;;;;;4.63;2.55;;;20.00;66.70;;;;;;5030828;28;20048;-83
2021/09/22 06:57:55;;;;;;;5.07;2.70;;;20.00;66.70;;;;;;5031873;28;20072;-81
2021/09/22 07:00:21;;;;;;;4.20;2.88;;;20.00;67.10;;;;;;5027112;28;20026;-81
2021/09/22 07:02:47;;;;;;;7.85;2.85;;;20.10;67.10;;;;;;5031045;28;20017;-82
2021/09/22 07:05:14;;;;;;;5.47;2.58;;;20.00;67.20;;;;;;5013888;28;20056;-84
2021/09/22 07:07:40;;;;;;;7.50;4.15;;;20.10;67.40;;;;;;5024999;28;20113;-83
2021/09/22 07:10:07;;;;;;;9.02;3.67;;;20.00;67.70;;;;;;5028008;28;20045;-83
2021/09/22 07:12:33;;;;;;;6.47;3.40;;;20.00;67.70;;;;;;5019763;28;20014;-83
2021/09/22 07:14:59;;;;;;;8.52;3.85;;;20.00;67.60;;;;;;5020657;28;20390;-84
2021/09/22 07:17:25;;;;;;;9.15;3.97;;;20.00;67.70;;;;;;5018875;28;20018;-85
2021/09/22 07:19:51;;;;;;;7.60;4.03;;;20.00;67.90;;;;;;5019155;28;20038;-84
2021/09/22 07:22:16;;;;;;;11.00;5.15;;;20.00;68.00;;;;;;5020172;28;20057;-85
2021/09/22 07:24:42;;;;;;;7.05;4.47;;;20.10;68.30;;;;;;5018171;28;20125;-84
2021/09/22 07:27:08;;;;;;;7.97;4.07;;;20.10;68.70;;;;;;5026851;28;20049;-81
2021/09/22 07:29:34;;;;;;;10.18;5.18;;;20.10;69.10;;;;;;5032160;28;20044;-87
2021/09/22 07:31:59;;;;;;;7.45;5.20;;;20.10;69.80;;;;;;5024029;28;20038;-81
2021/09/22 07:34:26;;;;;;;12.13;5.35;;;20.10;70.00;;;;;;5020501;28;20033;-82
2021/09/22 07:36:52;;;;;;;13.35;5.75;;;20.10;70.50;;;;;;5019936;28;20075;-85
2021/09/22 07:39:18;;;;;;;6.72;4.50;;;20.10;70.10;;;;;;5024585;28;20029;-83
2021/09/22 07:41:43;;;;;;;8.13;5.20;;;20.10;70.10;;;;;;5020440;28;20041;-82
2021/09/22 07:44:09;;;;;;;8.35;4.85;;;20.10;70.00;;;;;;5020917;28;20485;-85
2021/09/22 07:46:35;;;;;;;11.73;5.00;;;20.10;70.00;;;;;;5020488;28;20032;-86
2021/09/22 07:49:01;;;;;;;11.18;5.20;;;20.10;70.00;;;;;;5011333;28;20072;-85
2021/09/22 07:51:26;;;;;;;8.40;4.57;;;20.10;69.90;;;;;;5013675;28;20033;-87
2021/09/22 07:53:52;;;;;;;9.88;4.53;;;20.10;69.80;;;;;;5021028;28;20021;-84
2021/09/22 07:56:18;;;;;;;13.30;5.35;;;20.20;70.00;;;;;;5025271;28;20021;-85
2021/09/22 07:58:44;;;;;;;6.28;3.78;;;20.20;69.80;;;;;;5023249;28;20095;-84
2021/09/22 08:01:12;;;;;;;7.75;4.45;;;20.20;69.80;;;;;;5027001;28;20042;-81
2021/09/22 08:03:38;;;;;;;7.85;4.25;;;20.20;69.70;;;;;;5034378;28;20508;-86
2021/09/22 08:06:04;;;;;;;9.38;4.80;;;20.20;69.60;;;;;;5030623;28;20037;-83
2021/09/22 08:08:30;;;;;;;8.07;3.67;;;20.20;69.50;;;;;;5023252;28;20580;-86
2021/09/22 08:10:56;;;;;;;5.05;3.65;;;20.20;69.30;;;;;;5024631;28;20101;-85
2021/09/22 08:13:22;;;;;;;7.53;4.25;;;20.20;69.30;;;;;;5031527;28;20029;-84
2021/09/22 08:15:47;;;;;;;7.90;3.72;;;20.20;69.30;;;;;;5023876;28;20054;-86
2021/09/22 08:18:13;;;;;;;6.88;3.63;;;20.20;69.30;;;;;;5015076;28;20066;-84
2021/09/22 08:20:39;;;;;;;6.68;4.45;;;20.20;69.30;;;;;;5029135;28;20445;-84
2021/09/22 08:23:05;;;;;;;7.00;3.75;;;20.20;69.10;;;;;;5034791;28;20025;-84
2021/09/22 08:25:31;;;;;;;8.80;4.60;;;20.30;69.10;;;;;;5032113;28;20056;-83
2021/09/22 08:27:57;;;;;;;6.15;3.60;;;20.20;68.90;;;;;;5032446;28;20021;-85
2021/09/22 08:30:23;;;;;;;5.00;2.90;;;20.30;69.10;;;;;;5025272;28;20037;-86
2021/09/22 08:32:48;;;;;;;9.73;3.60;;;20.30;69.70;;;;;;5017485;28;20546;-87
2021/09/22 08:35:14;;;;;;;4.97;3.47;;;20.30;69.60;;;;;;5014639;28;20092;-85
2021/09/22 08:37:40;;;;;;;7.55;3.53;;;20.30;68.80;;;;;;5014389;28;20028;-84
2021/09/22 08:40:07;;;;;;;6.93;3.92;;;20.30;68.80;;;;;;5019256;28;20037;-86
2021/09/22 08:42:33;;;;;;;5.72;3.65;;;20.30;68.70;;;;;;5016480;28;20025;-85
2021/09/22 08:44:59;;;;;;;6.40;3.92;;;20.30;68.60;;;;;;5015066;28;20038;-83
2021/09/22 08:47:25;;;;;;;7.68;3.47;;;20.30;68.60;;;;;;5027830;28;20025;-84
2021/09/22 08:49:51;;;;;;;5.90;3.50;;;20.30;68.40;;;;;;5031844;28;20430;-86
2021/09/22 08:52:17;;;;;;;4.65;3.08;;;20.30;68.40;;;;;;5033805;28;20022;-84
2021/09/22 08:54:44;;;;;;;6.95;3.58;;;20.30;68.40;;;;;;5033886;28;20029;-84
2021/09/22 08:57:10;;;;;;;4.47;3.20;;;20.30;68.30;;;;;;5032817;28;20025;-84
2021/09/22 08:59:36;;;;;;;4.63;3.33;;;20.40;68.30;;;;;;5033942;28;20028;-87
2021/09/22 09:02:10;;;;;;;5.07;3.50;;;20.30;68.20;;;;;;5033282;28;20033;-86
2021/09/22 09:04:38;;;;;;;5.03;3.38;;;20.30;68.10;;;;;;5032945;28;20041;-85
2021/09/22 09:07:04;;;;;;;8.50;3.63;;;20.40;68.10;;;;;;5033259;28;20090;-87
2021/09/22 09:09:35;;;;;;;5.38;3.00;;;20.40;68.10;;;;;;5031329;28;20551;-83
2021/09/22 09:12:02;;;;;;;6.60;3.50;;;20.40;68.10;;;;;;5032160;28;20450;-86
2021/09/22 09:14:33;;;;;;;4.90;3.15;;;20.40;68.00;;;;;;5033520;28;20079;-86
2021/09/22 09:17:09;;;;;;;6.25;3.30;;;20.40;67.90;;;;;;5033701;28;20054;-86
2021/09/22 09:19:36;;;;;;;4.93;3.33;;;20.40;67.90;;;;;;5033598;28;20457;-84
2021/09/22 09:22:07;;;;;;;5.90;3.25;;;20.40;67.70;;;;;;5033699;28;20515;-87
2021/09/22 09:24:36;;;;;;;5.78;3.50;;;20.40;68.40;;;;;;5032704;28;20595;-88
2021/09/22 09:27:07;;;;;;;6.72;3.55;;;20.40;67.70;;;;;;5032205;28;20454;-86
2021/09/22 09:29:33;;;;;;;4.43;3.10;;;20.50;67.60;;;;;;5031052;28;20025;-86
2021/09/22 09:32:28;;;;;;;5.85;3.58;;;20.50;67.70;;;;;;5033491;28;20037;-87
2021/09/22 09:34:59;;;;;;;7.50;3.22;;;20.50;67.60;;;;;;5033853;28;20021;-85
2021/09/22 09:37:32;;;;;;;5.00;2.60;;;20.50;67.50;;;;;;5032463;28;20028;-85
2021/09/22 09:40:23;;;;;;;7.60;3.45;;;20.50;67.40;;;;;;5020201;28;20092;-84
2021/09/22 09:42:55;;;;;;;6.63;2.65;;;20.50;67.50;;;;;;5030614;28;20029;-86
2021/09/22 09:45:25;;;;;;;6.38;3.42;;;20.50;67.40;;;;;;5031827;28;20568;-85
2021/09/22 09:48:10;;;;;;;7.82;4.50;;;20.60;67.50;;;;;;5022095;28;20035;-86
2021/09/22 09:50:53;;;;;;;8.23;4.28;;;20.60;67.20;;;;;;5021726;28;20022;-84
2021/09/22 09:53:32;;;;;;;8.40;5.15;;;20.60;66.90;;;;;;5030661;28;20038;-86
2021/09/22 09:56:00;;;;;;;9.43;5.78;;;20.60;66.60;;;;;;5033122;28;20096;-88
2021/09/22 09:58:40;;;;;;;9.02;6.20;;;20.60;66.50;;;;;;5024329;28;20029;-84
2021/09/22 10:01:06;;;;;;;9.48;4.90;;;20.60;66.00;;;;;;5021125;28;20032;-82
2021/09/22 10:03:32;;;;;;;7.85;4.80;;;20.60;66.40;;;;;;5021732;28;20018;-84
2021/09/22 10:05:58;;;;;;;8.05;5.32;;;20.60;66.30;;;;;;5020257;28;20125;-85
2021/09/22 10:08:26;;;;;;;7.70;4.43;;;20.70;66.30;;;;;;5026521;28;20032;-85
2021/09/22 10:10:53;;;;;;;8.00;4.53;;;20.70;66.30;;;;;;5032819;28;20022;-86
2021/09/22 10:13:19;;;;;;;6.97;4.40;;;20.70;65.50;;;;;;5031277;28;20481;-90
2021/09/22 10:15:47;;;;;;;6.53;4.10;;;20.70;65.80;;;;;;5032814;28;20083;-86
2021/09/22 10:18:13;;;;;;;6.15;3.85;;;20.70;65.10;;;;;;5033322;28;20112;-93
2021/09/22 10:20:41;;;;;;;10.15;4.22;;;20.70;65.30;;;;;;5033299;28;20021;-90
2021/09/22 10:23:08;;;;;;;6.28;4.20;;;20.80;65.30;;;;;;5034945;28;20030;-88
2021/09/22 10:25:35;;;;;;;9.10;3.30;;;20.80;65.80;;;;;;5033952;28;20111;-87
2021/09/22 10:28:01;;;;;;;12.00;5.43;;;20.80;65.00;;;;;;5033868;28;20030;-92
2021/09/22 10:30:39;;;;;;;13.55;5.68;;;20.80;66.90;;;;;;5033308;28;20488;-87
2021/09/22 10:33:07;;;;;;;11.60;4.72;;;20.80;66.70;;;;;;5032592;28;20030;-83
2021/09/22 10:35:37;;;;;;;14.43;5.00;;;20.80;66.70;;;;;;5032008;28;20424;-88
2021/09/22 10:38:20;;;;;;;93.32;17.63;;;20.90;66.60;;;;;;5031936;28;20079;-89
2021/09/22 10:40:49;;;;;;;42.95;8.05;;;20.90;66.90;;;;;;5031678;28;20083;-88
2021/09/22 10:43:15;;;;;;;68.60;12.40;;;20.90;67.40;;;;;;5032323;28;20025;-90
2021/09/22 10:45:58;;;;;;;60.75;10.65;;;21.00;67.90;;;;;;5030731;28;20060;-86
2021/09/22 10:48:24;;;;;;;39.15;7.95;;;21.00;69.10;;;;;;5032852;28;20033;-89
2021/09/22 10:50:52;;;;;;;27.05;7.00;;;21.00;68.10;;;;;;5032606;28;20151;-91
2021/09/22 10:53:33;;;;;;;27.35;6.88;;;21.10;67.60;;;;;;5032966;28;20030;-86
2021/09/22 10:56:09;;;;;;;26.27;6.63;;;21.10;68.30;;;;;;5030621;28;20437;-89
2021/09/22 10:58:52;;;;;;;28.83;6.65;;;21.10;67.90;;;;;;5038083;28;20025;-87
2021/09/22 11:01:32;;;;;;;18.80;6.22;;;21.20;68.00;;;;;;5031538;28;20036;-91
2021/09/22 11:03:59;;;;;;;17.55;5.72;;;21.20;67.90;;;;;;5018637;28;20525;-88
2021/09/22 11:06:43;;;;;;;20.27;5.25;;;21.30;68.10;;;;;;5033012;28;20029;-82
2021/09/22 11:09:11;;;;;;;23.65;5.65;;;21.30;68.50;;;;;;5030745;28;20459;-86
2021/09/22 11:11:55;;;;;;;15.63;5.45;;;21.30;68.90;;;;;;5022288;28;20443;-88
2021/09/22 11:14:41;;;;;;;19.40;4.95;;;21.40;68.40;;;;;;5020081;28;20125;-86
2021/09/22 11:17:12;;;;;;;15.68;4.82;;;21.40;68.20;;;;;;5018903;28;20498;-90
2021/09/22 11:19:39;;;;;;;17.83;4.38;;;21.40;68.10;;;;;;5017588;28;20033;-86
2021/09/22 11:22:09;;;;;;;12.32;4.30;;;21.50;68.00;;;;;;5019297;28;20132;-88
2021/09/22 11:24:35;;;;;;;14.85;5.20;;;21.60;68.50;;;;;;5028301;28;20041;-88
2021/09/22 11:27:05;;;;;;;12.18;4.50;;;21.60;68.50;;;;;;5031472;28;20095;-89
2021/09/22 11:29:31;;;;;;;16.73;4.20;;;21.60;68.40;;;;;;5030999;28;20029;-86
2021/09/22 11:31:58;;;;;;;8.60;3.90;;;21.60;68.40;;;;;;5030490;28;20484;-88
2021/09/22 11:34:27;;;;;;;13.55;3.50;;;21.70;68.20;;;;;;5031667;28;20036;-87
2021/09/22 11:37:13;;;;;;;13.55;4.10;;;21.70;68.40;;;;;;5031668;28;20068;-90
2021/09/22 11:39:41;;;;;;;10.68;4.13;;;21.70;68.50;;;;;;5031609;28;20022;-89
2021/09/22 11:42:10;;;;;;;10.30;4.40;;;21.80;68.30;;;;;;5031662;28;20500;-87
2021/09/22 11:44:37;;;;;;;7.05;3.55;;;21.80;66.90;;;;;;5029525;28;20087;-87
2021/09/22 11:47:11;;;;;;;11.43;3.65;;;21.80;67.20;;;;;;5031207;28;20370;-86
2021/09/22 11:49:40;;;;;;;12.87;4.50;;;21.90;67.40;;;;;;5030949;28;20552;-81
2021/09/22 11:52:11;;;;;;;10.05;3.65;;;21.90;67.20;;;;;;5020912;28;20446;-84
2021/09/22 11:54:42;;;;;;;9.30;3.50;;;21.90;67.20;;;;;;5023134;28;20100;-88
2021/09/22 11:57:11;;;;;;;10.77;3.97;;;21.90;67.20;;;;;;5031740;28;20108;-89
2021/09/22 11:59:38;;;;;;;7.47;3.78;;;22.00;67.00;;;;;;5025319;28;20397;-92
2021/09/22 12:02:04;;;;;;;9.85;3.38;;;22.00;67.00;;;;;;5017818;28;20072;-90
2021/09/22 12:04:48;;;;;;;8.65;3.28;;;22.00;66.80;;;;;;5015415;28;20077;-87
2021/09/22 12:07:18;;;;;;;9.32;3.28;;;22.10;66.70;;;;;;5025431;28;20493;-88
2021/09/22 12:09:47;;;;;;;9.38;3.00;;;22.10;66.70;;;;;;5019876;28;20105;-85
2021/09/22 12:12:20;;;;;;;9.50;3.28;;;22.10;66.50;;;;;;5019587;28;20017;-89
2021/09/22 12:14:57;;;;;;;6.85;3.65;;;22.20;66.30;;;;;;5020689;28;20025;-89
2021/09/22 12:17:32;;;;;;;8.57;3.63;;;22.20;66.30;;;;;;5014599;28;20042;-89
2021/09/22 12:19:59;;;;;;;7.20;3.05;;;22.20;66.20;;;;;;5015137;28;20459;-88
2021/09/22 12:22:31;;;;;;;10.85;3.90;;;22.30;66.00;;;;;;5017024;28;20120;-86
2021/09/22 12:24:57;;;;;;;9.30;3.55;;;22.30;65.80;;;;;;5019577;28;20069;-89
2021/09/22 12:27:24;;;;;;;5.90;2.72;;;22.40;65.80;;;;;;5022487;28;20087;-84
2021/09/22 12:30:04;;;;;;;6.68;2.53;;;22.40;65.60;;;;;;5030417;28;20104;-87
2021/09/22 12:32:31;;;;;;;5.53;2.72;;;22.40;65.40;;;;;;5030116;28;20017;-88
2021/09/22 12:34:58;;;;;;;8.18;3.03;;;22.50;65.30;;;;;;5015833;28;20021;-92
2021/09/22 12:37:30;;;;;;;6.18;2.38;;;22.50;65.50;;;;;;5031782;28;20037;-86
2021/09/22 12:40:08;;;;;;;6.38;2.65;;;22.50;64.30;;;;;;5030482;28;20038;-87
2021/09/22 12:42:46;;;;;;;5.68;2.47;;;22.60;64.80;;;;;;5023861;28;20532;-89
2021/09/22 12:45:21;;;;;;;5.35;2.40;;;22.70;64.60;;;;;;5047945;28;20121;-89
2021/09/22 12:47:51;;;;;;;4.60;2.28;;;22.70;64.60;;;;;;5028076;28;20444;-86
2021/09/22 12:50:20;;;;;;;6.95;2.50;;;22.70;64.30;;;;;;5020482;28;20424;-89
2021/09/22 12:52:48;;;;;;;3.78;2.13;;;22.80;64.20;;;;;;5034318;28;20029;-87
2021/09/22 12:55:24;;;;;;;6.50;2.88;;;22.80;64.00;;;;;;5033379;28;20417;-88